Time;durP1;ratioP1;P1;durP2;ratioP2;P2;SDS_P1;SDS_P2;PMS_P1;PMS_P2;Temp;Humidity;BMP_temperature;BMP_pressure;BME280_temperature;BME280_humidity;BME280_pressure;Samples;Min_cycle;Max_cycle;Signal;HPM_P1;HPM_P2
2022/11/02 00:00:22;;;;;;;8.60;2.45;;;13.60;99.90;;;;;;5092614;28;20032;-66
2022/11/02 00:02:48;;;;;;;6.78;1.98;;;13.70;99.90;;;;;;5098973;28;20070;-66
2022/11/02 00:05:14;;;;;;;11.13;2.30;;;13.70;99.90;;;;;;5103045;28;20043;-66
2022/11/02 00:07:41;;;;;;;10.40;1.88;;;13.60;99.90;;;;;;5099385;28;20041;-66
2022/11/02 00:10:08;;;;;;;7.80;2.10;;;13.60;99.90;;;;;;5084225;28;20058;-66
2022/11/02 00:12:34;;;;;;;9.75;2.13;;;13.70;99.90;;;;;;5098463;28;20054;-66
2022/11/02 00:14:59;;;;;;;11.23;2.13;;;13.70;99.90;;;;;;5091860;28;20127;-66
2022/11/02 00:17:25;;;;;;;7.85;1.92;;;13.60;99.90;;;;;;5082021;28;20100;-66
2022/11/02 00:19:51;;;;;;;6.45;1.90;;;13.60;99.90;;;;;;5103693;28;20044;-66
2022/11/02 00:22:17;;;;;;;7.72;1.58;;;13.70;99.90;;;;;;5082907;28;20044;-66
2022/11/02 00:24:42;;;;;;;4.47;1.55;;;13.70;99.90;;;;;;5101842;28;20036;-66
2022/11/02 00:27:10;;;;;;;8.15;1.65;;;13.60;99.90;;;;;;5078082;28;20488;-66
2022/11/02 00:29:36;;;;;;;4.93;1.42;;;13.60;99.90;;;;;;5090265;28;20048;-66
2022/11/02 00:32:02;;;;;;;7.40;2.25;;;13.70;99.90;;;;;;5087582;28;20123;-66
2022/11/02 00:34:27;;;;;;;11.35;1.90;;;13.60;99.90;;;;;;5065913;28;20087;-66
2022/11/02 00:36:53;;;;;;;10.00;2.13;;;13.60;99.90;;;;;;5087103;28;20067;-66
2022/11/02 00:39:19;;;;;;;8.85;1.67;;;13.60;99.90;;;;;;5089754;28;20036;-66
2022/11/02 00:41:44;;;;;;;9.43;1.92;;;13.60;99.90;;;;;;5069633;28;20045;-66
2022/11/02 00:44:10;;;;;;;10.77;3.22;;;13.50;99.90;;;;;;5072767;28;20501;-66
2022/11/02 00:46:36;;;;;;;10.13;2.63;;;13.50;99.90;;;;;;5065561;28;20112;-66
2022/11/02 00:49:01;;;;;;;4.60;1.48;;;13.40;99.90;;;;;;5064392;28;20060;-66
2022/11/02 00:51:27;;;;;;;8.07;1.92;;;13.40;99.90;;;;;;5065101;28;20049;-66
2022/11/02 00:53:53;;;;;;;10.15;2.10;;;13.50;99.90;;;;;;5047050;28;20109;-66
2022/11/02 00:56:19;;;;;;;7.47;1.70;;;13.60;99.90;;;;;;5047896;28;20041;-66
2022/11/02 00:58:44;;;;;;;8.43;1.90;;;13.60;99.90;;;;;;5063890;28;20067;-65
2022/11/02 01:01:10;;;;;;;6.43;1.90;;;13.50;99.90;;;;;;5056333;28;20042;-66
2022/11/02 01:03:36;;;;;;;9.63;2.25;;;13.50;99.90;;;;;;5049148;28;20048;-66
2022/11/02 01:06:13;;;;;;;10.77;2.00;;;13.30;99.90;;;;;;5046460;28;20048;-66
2022/11/02 01:08:39;;;;;;;14.45;2.60;;;13.10;99.90;;;;;;5059223;28;20052;-66
2022/11/02 01:11:17;;;;;;;10.45;2.17;;;13.00;99.90;;;;;;5063267;28;20039;-66
2022/11/02 01:13:44;;;;;;;6.88;2.53;;;13.00;99.90;;;;;;5063287;28;20056;-66
2022/11/02 01:16:11;;;;;;;11.90;2.45;;;13.00;99.90;;;;;;5046283;28;20045;-66
2022/11/02 01:18:37;;;;;;;13.25;3.63;;;13.00;99.90;;;;;;5064300;28;20056;-65
2022/11/02 01:21:03;;;;;;;15.20;2.95;;;12.80;99.90;;;;;;5042390;28;20057;-65
2022/11/02 01:23:33;;;;;;;10.30;2.00;;;12.80;99.90;;;;;;5048231;28;20051;-66
2022/11/02 01:26:06;;;;;;;11.20;2.72;;;12.90;99.90;;;;;;5062303;28;20056;-65
2022/11/02 01:28:32;;;;;;;14.65;2.92;;;12.70;99.90;;;;;;5045795;28;20524;-66
2022/11/02 01:30:58;;;;;;;10.20;2.40;;;12.70;99.90;;;;;;5045879;28;20073;-66
2022/11/02 01:33:25;;;;;;;16.05;3.03;;;12.70;99.90;;;;;;5048958;28;20489;-66
2022/11/02 01:35:51;;;;;;;12.60;2.75;;;12.60;99.90;;;;;;5063629;28;20048;-66
2022/11/02 01:38:17;;;;;;;15.68;3.42;;;12.60;99.90;;;;;;5051332;28;20081;-66
2022/11/02 01:40:42;;;;;;;13.52;2.50;;;12.60;99.90;;;;;;5058847;28;20102;-66
2022/11/02 01:43:31;;;;;;;8.40;2.50;;;12.50;99.90;;;;;;5059857;28;20119;-66
2022/11/02 01:45:58;;;;;;;11.18;2.90;;;12.40;99.90;;;;;;5061584;28;20056;-66
2022/11/02 01:48:33;;;;;;;15.73;3.20;;;12.40;99.90;;;;;;5024227;28;20049;-66
2022/11/02 01:51:03;;;;;;;11.68;2.30;;;12.40;99.90;;;;;;5054532;28;20033;-66
2022/11/02 01:53:30;;;;;;;13.27;2.50;;;12.40;99.90;;;;;;5057023;28;20139;-66
2022/11/02 01:55:57;;;;;;;12.93;2.55;;;12.40;99.90;;;;;;5050099;28;20049;-65
2022/11/02 01:58:23;;;;;;;13.68;2.58;;;12.30;99.90;;;;;;5056929;28;20086;-66
2022/11/02 02:00:49;;;;;;;10.55;3.10;;;12.30;99.90;;;;;;5041720;28;20966;-65
2022/11/02 02:03:17;;;;;;;13.82;3.15;;;12.40;99.90;;;;;;5055201;28;20402;-66
2022/11/02 02:05:50;;;;;;;12.77;2.53;;;12.40;99.90;;;;;;5054058;28;20055;-65
2022/11/02 02:08:18;;;;;;;12.77;2.80;;;12.30;99.90;;;;;;5058710;28;20056;-66
2022/11/02 02:10:44;;;;;;;8.48;2.30;;;12.30;99.90;;;;;;5059389;28;20044;-66
2022/11/02 02:13:11;;;;;;;9.23;2.88;;;12.40;99.90;;;;;;5058633;28;20045;-66
2022/11/02 02:15:54;;;;;;;10.10;2.85;;;12.40;99.90;;;;;;5064074;28;20049;-66
2022/11/02 02:18:33;;;;;;;9.23;2.20;;;12.30;99.90;;;;;;5066206;28;20091;-65
2022/11/02 02:21:20;;;;;;;13.25;2.25;;;12.40;99.90;;;;;;5074474;28;20057;-66
2022/11/02 02:24:04;;;;;;;13.07;2.50;;;12.40;99.90;;;;;;5057786;28;20068;-65
2022/11/02 02:26:49;;;;;;;13.35;2.55;;;12.30;99.90;;;;;;5067759;28;20068;-66
2022/11/02 02:29:21;;;;;;;11.25;2.40;;;12.30;99.90;;;;;;5067081;28;20043;-66
2022/11/02 02:32:10;;;;;;;9.48;2.08;;;12.40;99.90;;;;;;5066568;28;20556;-65
2022/11/02 02:34:53;;;;;;;11.15;2.67;;;12.40;99.90;;;;;;5063335;28;20069;-66
2022/11/02 02:37:41;;;;;;;12.88;3.42;;;12.50;99.90;;;;;;5067063;28;20048;-66
2022/11/02 02:40:15;;;;;;;13.77;2.97;;;12.50;99.90;;;;;;5014257;28;20537;-66
2022/11/02 02:42:55;;;;;;;9.15;3.17;;;12.60;99.90;;;;;;5063071;28;20052;-66
2022/11/02 02:45:57;;;;;;;12.85;2.72;;;12.60;99.90;;;;;;5084963;28;20081;-66
2022/11/02 02:48:24;;;;;;;9.63;2.00;;;12.50;99.90;;;;;;5083645;28;20040;-66
2022/11/02 02:50:56;;;;;;;7.13;1.48;;;12.40;99.90;;;;;;5106378;28;20056;-66
2022/11/02 02:53:28;;;;;;;6.50;1.80;;;12.30;99.90;;;;;;5089420;28;20052;-66
2022/11/02 02:55:56;;;;;;;11.77;2.00;;;12.30;99.90;;;;;;5088532;28;20119;-65
2022/11/02 02:58:26;;;;;;;11.02;1.85;;;12.30;99.90;;;;;;5106381;28;20472;-66
2022/11/02 03:00:53;;;;;;;14.48;2.45;;;12.30;99.90;;;;;;5070864;28;20040;-66
2022/11/02 03:03:23;;;;;;;8.63;2.40;;;12.20;99.90;;;;;;5087563;28;20109;-66
2022/11/02 03:06:14;;;;;;;;;;;12.20;99.90;;;;;;5094683;28;20039;-66
2022/11/02 03:08:46;;;;;;;6.00;2.03;;;12.20;99.90;;;;;;5063311;28;20000;-65
2022/11/02 03:11:19;;;;;;;7.85;1.80;;;12.20;99.90;;;;;;5091134;28;20116;-66
2022/11/02 03:14:06;;;;;;;8.20;1.95;;;12.30;99.90;;;;;;5072955;28;20109;-66
2022/11/02 03:17:26;;;;;;;7.05;2.20;;;12.30;99.90;;;;;;5093472;28;20104;-66
2022/11/02 03:20:14;;;;;;;9.00;2.17;;;12.30;99.90;;;;;;4972670;28;20054;-66
2022/11/02 03:23:00;;;;;;;9.57;2.35;;;12.30;99.90;;;;;;5002361;28;20105;-65
2022/11/02 03:26:02;;;;;;;10.15;2.15;;;12.20;99.90;;;;;;5007485;28;20138;-66
2022/11/02 03:28:55;;;;;;;5.07;2.00;;;12.20;99.90;;;;;;4989095;28;20093;-66
2022/11/02 03:31:24;;;;;;;7.40;2.20;;;12.20;99.90;;;;;;5004226;28;20404;-66
2022/11/02 03:34:35;;;;;;;9.13;2.27;;;12.00;99.90;;;;;;4988691;28;20080;-66
2022/11/02 03:37:06;;;;;;;9.13;1.50;;;11.90;99.90;;;;;;4981350;28;20278;-66
2022/11/02 03:39:44;;;;;;;10.43;2.10;;;11.90;99.90;;;;;;4988950;28;20054;-66
2022/11/02 03:42:15;;;;;;;5.47;1.50;;;11.90;99.90;;;;;;5003680;28;20101;-65
2022/11/02 03:44:41;;;;;;;6.88;1.75;;;11.80;99.90;;;;;;4987294;28;20066;-65
2022/11/02 03:47:11;;;;;;;4.80;1.55;;;11.80;99.90;;;;;;5003767;28;20046;-66
2022/11/02 03:49:41;;;;;;;7.72;1.50;;;11.80;99.90;;;;;;5008811;28;20057;-65
2022/11/02 03:52:13;;;;;;;10.85;2.33;;;11.80;99.90;;;;;;5089554;28;20079;-66
2022/11/02 03:54:47;;;;;;;9.23;2.10;;;11.70;99.90;;;;;;5068212;28;20048;-65
2022/11/02 03:57:20;;;;;;;8.30;1.95;;;11.70;99.90;;;;;;5088900;28;20048;-66
2022/11/02 03:59:45;;;;;;;9.23;1.40;;;11.70;99.90;;;;;;5073619;28;20053;-66
2022/11/02 04:02:13;;;;;;;7.00;1.33;;;11.60;99.90;;;;;;5085476;28;20051;-66
2022/11/02 04:04:51;;;;;;;5.07;1.00;;;11.70;99.90;;;;;;5089183;28;20404;-66
2022/11/02 04:07:29;;;;;;;7.72;1.52;;;11.60;99.90;;;;;;5066274;28;20084;-65
2022/11/02 04:09:54;;;;;;;8.00;1.50;;;11.50;99.90;;;;;;5070681;28;20407;-66
2022/11/02 04:15:05;;;;;;;7.93;1.80;;;11.40;99.90;;;;;;5085686;28;20056;-66
2022/11/02 04:20:14;;;;;;;7.65;1.45;;;11.40;99.90;;;;;;5086304;28;20052;-65
2022/11/02 04:25:24;;;;;;;8.93;1.15;;;11.40;99.90;;;;;;5083444;28;20055;-65
2022/11/02 04:27:51;;;;;;;7.50;1.23;;;11.30;99.90;;;;;;5097561;28;20052;-65
2022/11/02 04:30:19;;;;;;;8.77;1.40;;;11.40;99.90;;;;;;5070856;28;20048;-65
2022/11/02 04:35:32;;;;;;;5.57;1.73;;;11.40;99.90;;;;;;5072993;28;20059;-65
2022/11/02 04:40:43;;;;;;;11.27;1.70;;;11.40;99.90;;;;;;5069031;28;20120;-65
2022/11/02 04:43:09;;;;;;;7.65;1.90;;;11.40;99.90;;;;;;5080623;28;20052;-65
2022/11/02 04:45:35;;;;;;;9.70;1.75;;;11.50;99.90;;;;;;5096434;28;20138;-65
2022/11/02 04:48:03;;;;;;;7.90;1.80;;;11.60;99.90;;;;;;5081712;28;20070;-65
2022/11/02 04:50:30;;;;;;;8.57;1.75;;;11.60;99.90;;;;;;5061833;28;20474;-65
2022/11/02 04:53:00;;;;;;;8.32;1.77;;;11.70;99.90;;;;;;5077452;28;20048;-65
2022/11/02 04:55:27;;;;;;;2.95;1.13;;;11.60;99.90;;;;;;5082777;28;20445;-65
2022/11/02 04:57:53;;;;;;;8.25;1.67;;;11.60;99.90;;;;;;5090037;28;20085;-65
2022/11/02 05:00:20;;;;;;;7.05;1.52;;;11.70;99.90;;;;;;5083094;28;20092;-65
2022/11/02 05:02:49;;;;;;;8.80;1.70;;;11.60;99.90;;;;;;5072012;28;20047;-65
2022/11/02 05:05:16;;;;;;;11.60;1.98;;;11.70;99.90;;;;;;5083337;28;20154;-65
2022/11/02 05:07:42;;;;;;;10.18;1.90;;;11.70;99.90;;;;;;5100960;28;20048;-65
2022/11/02 05:10:09;;;;;;;8.68;1.60;;;11.80;99.90;;;;;;5101517;28;20135;-65
2022/11/02 05:12:34;;;;;;;14.23;2.47;;;11.80;99.90;;;;;;5102729;28;20036;-65
2022/11/02 05:15:00;;;;;;;9.18;2.15;;;11.80;99.90;;;;;;5085823;28;20047;-65
2022/11/02 05:17:26;;;;;;;10.05;2.40;;;11.90;99.90;;;;;;5099501;28;20040;-65
2022/11/02 05:19:52;;;;;;;13.48;2.08;;;11.80;99.90;;;;;;5072775;28;20412;-65
2022/11/02 05:22:17;;;;;;;9.57;2.33;;;11.80;99.90;;;;;;5102805;28;20056;-65
2022/11/02 05:24:43;;;;;;;9.57;2.20;;;11.90;99.90;;;;;;5083168;28;20050;-65
2022/11/02 05:27:09;;;;;;;6.03;2.00;;;11.90;99.90;;;;;;5078707;28;20544;-65
2022/11/02 05:29:35;;;;;;;8.05;1.85;;;11.90;99.90;;;;;;5068103;28;20047;-65
2022/11/02 05:32:01;;;;;;;8.93;2.20;;;11.90;99.90;;;;;;5084680;28;20140;-65
2022/11/02 05:34:26;;;;;;;8.88;2.35;;;11.90;99.90;;;;;;5087757;28;20048;-65
2022/11/02 05:36:52;;;;;;;9.65;2.30;;;11.90;99.90;;;;;;5065986;28;20072;-65
2022/11/02 05:39:18;;;;;;;9.00;2.00;;;11.90;99.90;;;;;;5086628;28;20040;-65
2022/11/02 05:41:43;;;;;;;10.20;2.40;;;11.90;99.90;;;;;;5063092;28;20041;-65
2022/11/02 05:44:09;;;;;;;9.48;2.15;;;11.90;99.90;;;;;;5072077;28;20056;-65
2022/11/02 05:46:35;;;;;;;5.57;1.90;;;11.90;99.90;;;;;;5062916;28;20049;-65
2022/11/02 05:49:01;;;;;;;12.25;2.13;;;11.90;99.90;;;;;;5091003;28;20547;-65
2022/11/02 05:51:26;;;;;;;7.88;1.88;;;11.80;99.90;;;;;;5070797;28;20040;-65
2022/11/02 05:53:52;;;;;;;13.80;2.95;;;11.80;99.90;;;;;;5095455;28;20035;-65
2022/11/02 05:56:18;;;;;;;9.75;2.05;;;11.90;99.90;;;;;;5071975;28;20086;-65
2022/11/02 05:58:43;;;;;;;11.43;2.88;;;11.70;99.90;;;;;;5089518;28;20044;-65
2022/11/02 06:01:10;;;;;;;6.93;2.38;;;11.70;99.90;;;;;;5094941;28;20037;-65
2022/11/02 06:03:36;;;;;;;10.32;2.60;;;11.70;99.90;;;;;;5089376;28;20052;-65
2022/11/02 06:06:06;;;;;;;9.82;2.15;;;11.50;99.90;;;;;;5074276;28;20041;-65
2022/11/02 06:08:37;;;;;;;13.43;2.85;;;11.50;99.90;;;;;;5079025;28;20063;-65
2022/11/02 06:11:04;;;;;;;10.38;2.80;;;11.50;99.90;;;;;;5095402;28;20095;-65
2022/11/02 06:13:30;;;;;;;10.35;2.55;;;11.50;99.90;;;;;;5082521;28;20052;-65
2022/11/02 06:16:01;;;;;;;13.82;2.10;;;11.40;99.90;;;;;;5089647;28;20039;-65
2022/11/02 06:18:27;;;;;;;14.07;2.80;;;11.40;99.90;;;;;;5102223;28;20040;-65
2022/11/02 06:20:57;;;;;;;10.43;3.22;;;11.40;99.90;;;;;;5078432;28;20033;-65
2022/11/02 06:23:23;;;;;;;18.17;2.80;;;11.40;99.90;;;;;;5082399;28;20056;-65
2022/11/02 06:25:53;;;;;;;10.18;2.40;;;11.30;99.90;;;;;;5092260;28;20051;-65
2022/11/02 06:28:19;;;;;;;;;;;11.30;99.90;;;;;;5096109;28;20067;-65
2022/11/02 06:30:44;;;;;;;9.23;2.13;;;11.30;99.90;;;;;;5095508;28;19928;-65
2022/11/02 06:33:10;;;;;;;12.38;4.00;;;11.20;99.90;;;;;;5080108;28;20048;-65
2022/11/02 06:35:36;;;;;;;13.32;3.13;;;11.20;99.90;;;;;;5056521;28;20076;-65
2022/11/02 06:38:02;;;;;;;13.02;2.90;;;11.10;99.90;;;;;;5092332;28;20672;-65
2022/11/02 06:40:28;;;;;;;12.32;2.65;;;11.10;99.90;;;;;;5087430;28;20060;-65
2022/11/02 06:42:57;;;;;;;15.75;3.28;;;11.10;99.90;;;;;;5045772;28;20076;-63
2022/11/02 06:45:24;;;;;;;15.50;2.67;;;11.10;99.90;;;;;;5063933;28;20064;-62
2022/11/02 06:47:50;;;;;;;12.88;2.50;;;11.10;99.90;;;;;;5053756;28;20513;-62
2022/11/02 06:50:16;;;;;;;12.70;2.85;;;11.10;99.90;;;;;;5063636;28;20417;-63
2022/11/02 06:52:44;;;;;;;9.27;2.03;;;11.10;99.90;;;;;;5031256;28;20053;-62
2022/11/02 06:55:10;;;;;;;6.90;2.97;;;11.20;99.90;;;;;;5066424;28;20110;-63
2022/11/02 06:57:37;;;;;;;9.57;2.17;;;11.20;99.90;;;;;;5048484;28;20056;-63
2022/11/02 07:00:04;;;;;;;14.88;2.45;;;11.10;99.90;;;;;;5067923;28;20045;-62
2022/11/02 07:02:30;;;;;;;12.48;2.75;;;11.20;99.90;;;;;;5047376;28;20517;-64
2022/11/02 07:04:56;;;;;;;14.00;2.53;;;11.20;99.90;;;;;;5051202;28;20083;-65
2022/11/02 07:07:22;;;;;;;13.55;2.75;;;11.20;99.90;;;;;;5065145;28;20036;-65
2022/11/02 07:09:48;;;;;;;12.27;3.10;;;11.20;99.90;;;;;;5066319;28;20052;-65
2022/11/02 07:12:14;;;;;;;10.32;2.50;;;11.20;99.90;;;;;;5079278;28;20052;-65
2022/11/02 07:14:39;;;;;;;16.60;3.17;;;11.20;99.90;;;;;;5055579;28;20048;-65
2022/11/02 07:17:05;;;;;;;13.02;2.72;;;11.20;99.90;;;;;;5084420;28;20033;-65
2022/11/02 07:19:31;;;;;;;13.98;2.67;;;11.20;99.90;;;;;;5051166;28;20065;-66
2022/11/02 07:22:02;;;;;;;12.13;2.60;;;11.30;99.90;;;;;;5039933;28;20048;-65
2022/11/02 07:24:28;;;;;;;12.68;2.63;;;11.30;99.90;;;;;;5048048;28;20041;-65
2022/11/02 07:26:53;;;;;;;12.95;2.75;;;11.30;99.90;;;;;;5073779;28;20044;-63
2022/11/02 07:29:19;;;;;;;18.38;3.58;;;11.50;99.90;;;;;;5063052;28;20193;-65
2022/11/02 07:31:45;;;;;;;16.65;3.40;;;11.40;99.90;;;;;;5055514;28;20032;-64
2022/11/02 07:34:12;;;;;;;9.40;3.08;;;11.20;99.90;;;;;;5070598;28;20041;-64
2022/11/02 07:36:38;;;;;;;16.27;3.15;;;11.10;99.90;;;;;;5065418;28;20186;-64
2022/11/02 07:39:04;;;;;;;15.02;2.90;;;11.00;99.90;;;;;;5038337;28;20082;-63
2022/11/02 07:41:30;;;;;;;15.27;3.60;;;11.00;99.90;;;;;;5041934;28;20585;-64
2022/11/02 07:43:55;;;;;;;13.15;3.33;;;11.00;99.90;;;;;;5044792;28;20433;-63
2022/11/02 07:46:21;;;;;;;13.40;3.08;;;11.00;99.90;;;;;;5048104;28;20044;-63
2022/11/02 07:48:47;;;;;;;10.45;2.65;;;11.00;99.90;;;;;;5060992;28;20109;-63
2022/11/02 07:51:13;;;;;;;15.55;3.22;;;11.00;99.90;;;;;;5049383;28;20056;-63
2022/11/02 07:53:38;;;;;;;16.00;3.95;;;11.00;99.90;;;;;;5042418;28;20101;-63
2022/11/02 07:56:05;;;;;;;9.45;2.30;;;10.90;99.90;;;;;;5030704;28;20060;-63
2022/11/02 07:58:31;;;;;;;12.07;3.03;;;11.00;99.90;;;;;;5059590;28;20048;-63
2022/11/02 08:01:00;;;;;;;12.02;2.38;;;10.90;99.90;;;;;;5047487;28;20053;-68
2022/11/02 08:03:27;;;;;;;12.23;1.93;;;11.00;99.90;;;;;;5057824;28;20576;-67
2022/11/02 08:05:53;;;;;;;9.25;2.10;;;11.00;99.90;;;;;;5057344;28;20571;-67
2022/11/02 08:08:21;;;;;;;10.00;2.38;;;11.00;99.90;;;;;;5038674;28;20186;-67
2022/11/02 08:10:49;;;;;;;10.50;2.90;;;11.00;99.90;;;;;;5039379;28;20045;-68
2022/11/02 08:13:17;;;;;;;9.98;2.47;;;11.10;99.90;;;;;;5075908;28;20045;-68
2022/11/02 08:15:43;;;;;;;12.30;1.92;;;11.10;99.90;;;;;;5042092;28;20075;-67
2022/11/02 08:18:15;;;;;;;9.38;2.38;;;11.10;99.90;;;;;;5043589;28;20060;-67
2022/11/02 08:20:42;;;;;;;9.40;2.00;;;11.10;99.90;;;;;;5047286;28;20071;-69
2022/11/02 08:23:09;;;;;;;11.90;2.28;;;11.10;99.90;;;;;;5046442;28;20592;-67
2022/11/02 08:25:35;;;;;;;10.52;2.08;;;11.20;99.90;;;;;;5064650;28;20040;-67
2022/11/02 08:28:02;;;;;;;10.07;2.45;;;11.10;99.90;;;;;;5071924;28;20045;-67
2022/11/02 08:30:29;;;;;;;10.18;2.00;;;11.20;99.90;;;;;;5062881;28;20116;-67
2022/11/02 08:33:00;;;;;;;10.20;2.42;;;11.30;99.90;;;;;;5057626;28;20052;-67
2022/11/02 08:35:26;;;;;;;8.63;2.25;;;11.40;99.90;;;;;;5061799;28;20079;-68
2022/11/02 08:37:53;;;;;;;9.98;2.20;;;11.40;99.90;;;;;;5052787;28;20041;-67
2022/11/02 08:40:19;;;;;;;11.68;2.22;;;11.40;99.90;;;;;;5055040;28;20047;-68
2022/11/02 08:42:45;;;;;;;8.02;2.25;;;11.40;99.90;;;;;;5047272;28;20428;-68
2022/11/02 08:45:11;;;;;;;10.23;2.28;;;11.40;99.90;;;;;;5022404;28;20064;-68
2022/11/02 08:47:43;;;;;;;14.75;2.88;;;11.40;99.90;;;;;;5047407;28;20064;-72
2022/11/02 08:50:09;;;;;;;12.65;2.42;;;11.40;99.90;;;;;;5054246;28;20356;-74
2022/11/02 08:52:39;;;;;;;10.45;2.40;;;11.50;99.90;;;;;;5049647;28;20048;-66
2022/11/02 08:55:05;;;;;;;10.30;2.15;;;11.50;99.90;;;;;;5052681;28;20048;-68
2022/11/02 08:57:30;;;;;;;13.13;2.17;;;11.50;99.90;;;;;;5052852;28;20053;-70
2022/11/02 08:59:56;;;;;;;10.20;1.67;;;11.60;99.90;;;;;;5034416;28;20103;-69
2022/11/02 09:02:22;;;;;;;17.80;2.58;;;11.70;99.90;;;;;;5044298;28;20049;-69
2022/11/02 09:04:47;;;;;;;14.73;2.20;;;11.80;99.90;;;;;;5047237;28;20053;-70
2022/11/02 09:07:13;;;;;;;11.48;2.50;;;11.90;99.90;;;;;;5051458;28;20110;-70
2022/11/02 09:09:39;;;;;;;12.38;1.80;;;12.00;99.90;;;;;;5030410;28;20045;-73
2022/11/02 09:12:05;;;;;;;13.07;2.20;;;12.00;99.90;;;;;;5038996;28;20110;-69
2022/11/02 09:14:30;;;;;;;14.35;2.17;;;12.00;99.90;;;;;;5012421;28;20048;-69
2022/11/02 09:16:56;;;;;;;10.30;1.92;;;12.10;99.90;;;;;;5049700;28;20408;-68
2022/11/02 09:19:22;;;;;;;10.13;1.73;;;12.10;99.90;;;;;;5052362;28;20044;-68
2022/11/02 09:21:49;;;;;;;10.20;1.85;;;12.20;99.90;;;;;;5034131;28;20053;-68
2022/11/02 09:24:15;;;;;;;8.10;1.63;;;12.20;99.90;;;;;;5048999;28;20067;-68
2022/11/02 09:26:41;;;;;;;8.55;1.63;;;12.30;99.90;;;;;;5030343;28;20049;-68
2022/11/02 09:29:06;;;;;;;9.85;1.58;;;12.40;99.90;;;;;;5054764;28;20044;-71
2022/11/02 09:31:32;;;;;;;8.60;1.50;;;12.40;99.90;;;;;;5032428;28;20204;-71
2022/11/02 09:33:58;;;;;;;10.00;1.92;;;12.50;99.90;;;;;;5022046;28;20128;-71
2022/11/02 09:36:23;;;;;;;7.93;1.80;;;12.50;99.90;;;;;;5024491;28;20076;-71
2022/11/02 09:38:49;;;;;;;13.10;2.22;;;12.60;99.90;;;;;;5039498;28;20044;-71
2022/11/02 09:41:17;;;;;;;8.27;1.67;;;12.60;99.90;;;;;;5053841;28;20107;-71
2022/11/02 09:43:59;;;;;;;8.00;1.83;;;12.60;99.90;;;;;;5027205;28;20053;-71
2022/11/02 09:46:46;;;;;;;4.60;1.70;;;12.60;99.90;;;;;;5040191;28;20479;-70
2022/11/02 09:49:15;;;;;;;9.93;1.60;;;12.70;99.90;;;;;;5045112;28;20045;-71
2022/11/02 09:51:50;;;;;;;11.38;2.08;;;12.70;99.90;;;;;;5035129;28;20073;-71
2022/11/02 09:54:38;;;;;;;8.18;2.00;;;12.70;99.90;;;;;;5048535;28;20045;-71
2022/11/02 09:57:19;;;;;;;5.63;1.23;;;12.90;99.90;;;;;;5019960;28;20052;-71
2022/11/02 09:59:44;;;;;;;9.20;1.50;;;12.90;99.90;;;;;;5022151;28;20053;-72
2022/11/02 10:02:22;;;;;;;5.25;1.60;;;13.10;99.90;;;;;;5041194;28;20045;-71
2022/11/02 10:05:14;;;;;;;7.20;1.55;;;13.20;99.90;;;;;;5016976;28;20063;-72
2022/11/02 10:08:18;;;;;;;8.05;1.38;;;13.20;99.90;;;;;;5045065;28;20046;-71
2022/11/02 10:10:57;;;;;;;8.57;1.70;;;13.20;99.90;;;;;;5023826;28;20141;-71
2022/11/02 10:13:35;;;;;;;6.63;1.60;;;13.30;99.90;;;;;;5034250;28;20123;-71
2022/11/02 10:16:08;;;;;;;8.68;1.88;;;13.30;99.90;;;;;;5044992;28;20140;-71
2022/11/02 10:18:35;;;;;;;12.38;1.73;;;13.30;99.90;;;;;;5055652;28;20095;-71
2022/11/02 10:21:12;;;;;;;8.82;1.52;;;13.30;99.90;;;;;;5042212;28;20083;-71
2022/11/02 10:23:50;;;;;;;10.15;1.60;;;13.20;99.90;;;;;;5041799;28;20147;-71
2022/11/02 10:26:33;;;;;;;10.60;1.95;;;13.30;99.90;;;;;;5023565;28;20044;-71
2022/11/02 10:29:10;;;;;;;13.75;2.47;;;13.40;99.90;;;;;;5040341;28;20061;-72
2022/11/02 10:31:36;;;;;;;10.20;2.00;;;13.40;99.90;;;;;;5056050;28;20147;-71
2022/11/02 10:34:20;;;;;;;8.93;2.08;;;13.30;99.90;;;;;;5034971;28;20094;-71
2022/11/02 10:36:51;;;;;;;9.57;1.77;;;13.30;99.90;;;;;;5016965;28;20136;-67
2022/11/02 10:39:23;;;;;;;8.43;1.75;;;13.50;99.90;;;;;;5038389;28;20037;-73
2022/11/02 10:42:34;;;;;;;11.07;2.00;;;13.40;99.90;;;;;;5048296;28;20049;-73
2022/11/02 10:45:13;;;;;;;11.90;1.90;;;13.40;99.90;;;;;;4985464;28;20058;-75
2022/11/02 10:47:45;;;;;;;13.88;1.85;;;13.50;99.90;;;;;;4999982;28;20465;-73
2022/11/02 10:50:35;;;;;;;9.35;1.55;;;13.40;99.90;;;;;;4993185;28;20033;-74
2022/11/02 10:53:02;;;;;;;8.65;1.92;;;13.30;99.90;;;;;;5001846;28;20072;-75
2022/11/02 10:56:09;;;;;;;10.63;3.08;;;13.50;99.90;;;;;;5001290;28;20054;-78
2022/11/02 10:58:39;;;;;;;9.30;1.92;;;13.60;99.90;;;;;;4998920;28;21147;-74
2022/11/02 11:01:06;;;;;;;;;;;13.40;99.90;;;;;;4995625;28;20060;-75
2022/11/02 11:03:32;;;;;;;15.10;2.78;;;13.30;99.90;;;;;;5001478;28;20016;-71
2022/11/02 11:06:00;;;;;;;13.00;2.38;;;13.30;99.90;;;;;;4985285;28;20081;-73
2022/11/02 11:08:28;;;;;;;11.05;1.67;;;13.20;99.90;;;;;;5001619;28;20054;-70
2022/11/02 11:10:54;;;;;;;11.23;2.03;;;13.10;99.90;;;;;;4991277;28;20058;-71
2022/11/02 11:13:22;;;;;;;9.65;1.70;;;13.10;99.90;;;;;;4998950;28;20080;-70
2022/11/02 11:15:51;;;;;;;5.13;1.10;;;13.00;99.90;;;;;;4993024;28;20046;-71
2022/11/02 11:18:20;;;;;;;9.27;1.85;;;13.00;99.90;;;;;;5016749;28;20048;-70
2022/11/02 11:20:46;;;;;;;7.63;1.27;;;12.90;99.90;;;;;;5054985;28;20045;-71
2022/11/02 11:23:24;;;;;;;10.57;2.22;;;13.10;99.90;;;;;;5062035;28;20102;-72
2022/11/02 11:26:22;;;;;;;10.13;1.75;;;13.20;99.90;;;;;;5060699;28;20056;-72
2022/11/02 11:28:56;;;;;;;8.48;1.42;;;13.40;99.90;;;;;;5043805;28;20403;-66
2022/11/02 11:31:22;;;;;;;10.55;2.35;;;13.50;99.90;;;;;;5069161;28;20113;-72
2022/11/02 11:33:56;;;;;;;11.38;2.08;;;13.80;99.90;;;;;;5059522;28;20063;-72
2022/11/02 11:36:31;;;;;;;6.63;1.30;;;14.00;99.90;;;;;;5048455;28;20048;-72
2022/11/02 11:39:04;;;;;;;10.15;2.65;;;14.10;99.90;;;;;;5058549;28;20087;-73
2022/11/02 11:41:31;;;;;;;6.80;1.48;;;14.10;99.90;;;;;;5049689;28;20144;-72
2022/11/02 11:43:59;;;;;;;5.72;1.73;;;14.00;99.90;;;;;;5043356;28;20052;-72
2022/11/02 11:46:40;;;;;;;15.32;1.58;;;13.90;99.90;;;;;;5044848;28;20045;-72
2022/11/02 11:49:23;;;;;;;12.07;2.22;;;13.80;99.90;;;;;;5038781;28;20044;-72
2022/11/02 11:51:51;;;;;;;7.22;1.20;;;13.90;99.90;;;;;;5027916;28;20068;-72
2022/11/02 11:54:29;;;;;;;6.22;1.25;;;13.90;99.90;;;;;;5065567;28;20037;-73
2022/11/02 11:57:16;;;;;;;4.53;1.13;;;14.00;99.90;;;;;;5032280;28;20052;-73
2022/11/02 11:59:42;;;;;;;8.38;1.42;;;13.90;99.90;;;;;;5038949;28;20396;-72
2022/11/02 12:02:23;;;;;;;7.53;1.30;;;13.90;99.90;;;;;;5029515;28;20343;-72
2022/11/02 12:04:49;;;;;;;6.13;1.40;;;13.70;99.90;;;;;;5038895;28;20045;-72
2022/11/02 12:07:29;;;;;;;7.63;1.40;;;13.60;99.90;;;;;;5017827;28;20063;-72
2022/11/02 12:10:18;;;;;;;6.88;1.35;;;13.50;99.90;;;;;;5059295;28;20077;-71
2022/11/02 12:13:02;;;;;;;9.55;1.92;;;13.70;99.90;;;;;;4991436;28;20063;-71
2022/11/02 12:15:33;;;;;;;5.85;1.35;;;13.90;99.90;;;;;;5028403;28;20128;-72
2022/11/02 12:18:42;;;;;;;7.28;1.92;;;14.00;99.90;;;;;;5040154;28;20537;-72
2022/11/02 12:21:37;;;;;;;9.57;2.08;;;14.30;99.90;;;;;;5048036;28;20088;-72
2022/11/02 12:24:29;;;;;;;8.23;1.98;;;14.50;99.90;;;;;;5044921;28;20048;-72
2022/11/02 12:27:46;;;;;;;9.70;1.80;;;14.50;99.90;;;;;;5027611;28;20053;-72
2022/11/02 12:30:14;;;;;;;9.55;1.67;;;14.60;99.90;;;;;;4960800;28;20059;-72
2022/11/02 12:33:01;;;;;;;7.57;1.73;;;14.40;99.90;;;;;;4948661;28;20054;-71
2022/11/02 12:36:11;;;;;;;10.52;1.92;;;14.20;99.90;;;;;;4946414;28;20121;-72
2022/11/02 12:38:48;;;;;;;12.35;1.83;;;13.90;99.90;;;;;;4953191;28;20055;-72
2022/11/02 12:41:23;;;;;;;14.60;2.40;;;13.90;99.90;;;;;;4929124;29;20051;-72
2022/11/02 12:43:57;;;;;;;8.30;1.48;;;13.90;99.90;;;;;;4915618;28;20316;-73
2022/11/02 12:46:38;;;;;;;11.02;1.70;;;14.10;99.90;;;;;;4951294;28;20074;-72
2022/11/02 12:49:35;;;;;;;8.93;1.50;;;14.40;99.90;;;;;;4984401;28;20039;-72
2022/11/02 12:52:33;;;;;;;8.77;1.85;;;14.70;99.90;;;;;;4963864;28;20054;-72
2022/11/02 12:55:01;;;;;;;10.20;2.17;;;15.00;99.90;;;;;;4984752;28;20115;-72
2022/11/02 12:57:30;;;;;;;11.57;1.75;;;15.20;99.90;;;;;;4971257;28;20105;-72
2022/11/02 13:00:02;;;;;;;7.47;1.50;;;15.40;99.90;;;;;;4957262;28;20565;-72
2022/11/02 13:02:54;;;;;;;9.10;1.60;;;15.60;99.90;;;;;;4954075;28;20085;-72
2022/11/02 13:05:53;;;;;;;6.70;1.27;;;15.70;99.90;;;;;;4993589;28;20053;-72
2022/11/02 13:08:26;;;;;;;6.72;1.40;;;15.90;99.90;;;;;;4982593;28;20135;-72
2022/11/02 13:10:56;;;;;;;5.40;1.30;;;15.90;99.90;;;;;;5014891;28;20052;-72
2022/11/02 13:13:46;;;;;;;5.78;1.52;;;15.90;99.90;;;;;;5040998;28;20068;-72
2022/11/02 13:16:15;;;;;;;10.48;1.60;;;15.60;99.90;;;;;;5031297;28;20072;-72
2022/11/02 13:18:47;;;;;;;8.97;1.60;;;15.60;99.90;;;;;;5066733;28;20049;-72